sensor_id;sensor_type;location;lat;lon;timestamp;P1;durP1;ratioP1;P2;durP2;ratioP2
17993;SDS011;9122;48.406;9.984;2022-08-07T00:00:36;4.90;;;4.50;;
17993;SDS011;9122;48.406;9.984;2022-08-07T00:03:20;3.80;;;3.50;;
17993;SDS011;9122;48.406;9.984;2022-08-07T00:06:07;3.55;;;3.35;;
17993;SDS011;9122;48.406;9.984;2022-08-07T00:08:51;3.80;;;3.03;;
17993;SDS011;9122;48.406;9.984;2022-08-07T00:11:36;4.63;;;3.27;;
17993;SDS011;9122;48.406;9.984;2022-08-07T00:14:20;3.10;;;2.90;;
17993;SDS011;9122;48.406;9.984;2022-08-07T00:17:05;3.60;;;3.30;;
17993;SDS011;9122;48.406;9.984;2022-08-07T00:19:49;3.23;;;3.03;;
17993;SDS011;9122;48.406;9.984;2022-08-07T00:22:34;3.10;;;2.90;;
17993;SDS011;9122;48.406;9.984;2022-08-07T00:25:19;3.27;;;3.07;;
17993;SDS011;9122;48.406;9.984;2022-08-07T00:28:03;3.03;;;2.83;;
17993;SDS011;9122;48.406;9.984;2022-08-07T00:30:48;3.50;;;3.20;;
17993;SDS011;9122;48.406;9.984;2022-08-07T00:33:33;3.17;;;2.97;;
17993;SDS011;9122;48.406;9.984;2022-08-07T00:36:19;3.63;;;3.33;;
17993;SDS011;9122;48.406;9.984;2022-08-07T00:39:04;3.60;;;3.40;;
17993;SDS011;9122;48.406;9.984;2022-08-07T00:41:50;3.60;;;3.37;;
17993;SDS011;9122;48.406;9.984;2022-08-07T00:44:36;3.03;;;2.83;;
17993;SDS011;9122;48.406;9.984;2022-08-07T00:47:20;4.17;;;3.87;;
17993;SDS011;9122;48.406;9.984;2022-08-07T00:50:05;4.83;;;3.57;;
17993;SDS011;9122;48.406;9.984;2022-08-07T00:52:50;3.43;;;3.20;;
17993;SDS011;9122;48.406;9.984;2022-08-07T00:55:34;3.13;;;2.93;;
17993;SDS011;9122;48.406;9.984;2022-08-07T00:58:19;3.03;;;2.83;;
17993;SDS011;9122;48.406;9.984;2022-08-07T01:01:04;2.67;;;2.47;;
17993;SDS011;9122;48.406;9.984;2022-08-07T01:03:49;2.73;;;2.53;;
17993;SDS011;9122;48.406;9.984;2022-08-07T01:06:34;2.80;;;2.57;;
17993;SDS011;9122;48.406;9.984;2022-08-07T01:09:18;3.43;;;3.23;;
17993;SDS011;9122;48.406;9.984;2022-08-07T01:12:03;3.07;;;2.87;;
17993;SDS011;9122;48.406;9.984;2022-08-07T01:14:48;2.60;;;2.40;;
17993;SDS011;9122;48.406;9.984;2022-08-07T01:17:33;3.10;;;2.80;;
17993;SDS011;9122;48.406;9.984;2022-08-07T01:20:20;2.70;;;2.60;;
17993;SDS011;9122;48.406;9.984;2022-08-07T01:23:08;3.73;;;3.00;;
17993;SDS011;9122;48.406;9.984;2022-08-07T01:25:54;3.00;;;2.77;;
17993;SDS011;9122;48.406;9.984;2022-08-07T01:28:43;3.10;;;2.90;;
17993;SDS011;9122;48.406;9.984;2022-08-07T01:31:29;3.93;;;3.50;;
17993;SDS011;9122;48.406;9.984;2022-08-07T01:34:17;3.47;;;3.13;;
17993;SDS011;9122;48.406;9.984;2022-08-07T01:37:01;3.00;;;2.80;;
17993;SDS011;9122;48.406;9.984;2022-08-07T01:39:46;3.90;;;3.30;;
17993;SDS011;9122;48.406;9.984;2022-08-07T01:42:31;3.30;;;3.10;;
17993;SDS011;9122;48.406;9.984;2022-08-07T01:45:16;3.97;;;3.70;;
17993;SDS011;9122;48.406;9.984;2022-08-07T01:48:04;3.70;;;3.50;;
17993;SDS011;9122;48.406;9.984;2022-08-07T01:50:59;3.97;;;3.70;;
17993;SDS011;9122;48.406;9.984;2022-08-07T01:53:47;4.70;;;3.30;;
17993;SDS011;9122;48.406;9.984;2022-08-07T01:56:53;3.80;;;3.50;;
17993;SDS011;9122;48.406;9.984;2022-08-07T01:59:52;3.60;;;3.30;;
17993;SDS011;9122;48.406;9.984;2022-08-07T02:03:14;3.73;;;3.53;;
17993;SDS011;9122;48.406;9.984;2022-08-07T02:05:54;3.57;;;3.27;;
17993;SDS011;9122;48.406;9.984;2022-08-07T02:08:45;4.87;;;4.40;;
17993;SDS011;9122;48.406;9.984;2022-08-07T02:11:32;3.93;;;3.60;;
17993;SDS011;9122;48.406;9.984;2022-08-07T02:14:19;3.83;;;3.63;;
17993;SDS011;9122;48.406;9.984;2022-08-07T02:17:04;4.33;;;3.87;;
17993;SDS011;9122;48.406;9.984;2022-08-07T02:19:50;4.37;;;3.93;;
17993;SDS011;9122;48.406;9.984;2022-08-07T02:22:37;4.30;;;4.10;;
17993;SDS011;9122;48.406;9.984;2022-08-07T02:25:23;4.00;;;3.80;;
17993;SDS011;9122;48.406;9.984;2022-08-07T02:28:08;4.33;;;3.90;;
17993;SDS011;9122;48.406;9.984;2022-08-07T02:30:54;4.57;;;4.27;;
17993;SDS011;9122;48.406;9.984;2022-08-07T02:33:40;4.30;;;4.00;;
17993;SDS011;9122;48.406;9.984;2022-08-07T02:36:25;4.00;;;3.70;;
17993;SDS011;9122;48.406;9.984;2022-08-07T02:39:11;4.20;;;3.90;;
17993;SDS011;9122;48.406;9.984;2022-08-07T02:41:58;4.30;;;4.00;;
17993;SDS011;9122;48.406;9.984;2022-08-07T02:44:44;6.67;;;4.80;;
17993;SDS011;9122;48.406;9.984;2022-08-07T02:47:31;5.67;;;5.27;;
17993;SDS011;9122;48.406;9.984;2022-08-07T02:50:22;5.10;;;4.80;;
17993;SDS011;9122;48.406;9.984;2022-08-07T02:56:25;5.63;;;5.13;;
17993;SDS011;9122;48.406;9.984;2022-08-07T02:59:16;5.63;;;5.23;;
17993;SDS011;9122;48.406;9.984;2022-08-07T03:02:02;5.70;;;5.20;;
17993;SDS011;9122;48.406;9.984;2022-08-07T03:04:47;5.77;;;5.37;;
17993;SDS011;9122;48.406;9.984;2022-08-07T03:07:35;6.20;;;5.80;;
17993;SDS011;9122;48.406;9.984;2022-08-07T03:10:20;6.03;;;5.53;;
17993;SDS011;9122;48.406;9.984;2022-08-07T03:13:05;6.23;;;5.83;;
17993;SDS011;9122;48.406;9.984;2022-08-07T03:15:51;6.43;;;5.83;;
17993;SDS011;9122;48.406;9.984;2022-08-07T03:18:36;7.10;;;6.50;;
17993;SDS011;9122;48.406;9.984;2022-08-07T03:21:21;7.23;;;6.63;;
17993;SDS011;9122;48.406;9.984;2022-08-07T03:24:06;6.90;;;6.30;;
17993;SDS011;9122;48.406;9.984;2022-08-07T03:26:50;6.90;;;6.40;;
17993;SDS011;9122;48.406;9.984;2022-08-07T03:29:41;7.23;;;6.63;;
17993;SDS011;9122;48.406;9.984;2022-08-07T03:32:36;8.03;;;7.27;;
17993;SDS011;9122;48.406;9.984;2022-08-07T03:35:23;9.00;;;8.20;;
17993;SDS011;9122;48.406;9.984;2022-08-07T03:38:08;8.73;;;7.90;;
17993;SDS011;9122;48.406;9.984;2022-08-07T03:40:54;9.67;;;8.50;;
17993;SDS011;9122;48.406;9.984;2022-08-07T03:43:40;8.43;;;7.67;;
17993;SDS011;9122;48.406;9.984;2022-08-07T03:46:25;9.13;;;8.43;;
17993;SDS011;9122;48.406;9.984;2022-08-07T03:49:11;9.20;;;8.37;;
17993;SDS011;9122;48.406;9.984;2022-08-07T03:51:56;9.83;;;8.93;;
17993;SDS011;9122;48.406;9.984;2022-08-07T03:54:41;10.17;;;9.17;;
17993;SDS011;9122;48.406;9.984;2022-08-07T03:57:26;11.07;;;10.07;;
17993;SDS011;9122;48.406;9.984;2022-08-07T04:00:12;10.87;;;9.90;;
17993;SDS011;9122;48.406;9.984;2022-08-07T04:02:57;12.47;;;10.47;;
17993;SDS011;9122;48.406;9.984;2022-08-07T04:05:42;11.67;;;9.80;;
17993;SDS011;9122;48.406;9.984;2022-08-07T04:08:27;11.23;;;10.27;;
17993;SDS011;9122;48.406;9.984;2022-08-07T04:11:11;10.17;;;9.27;;
17993;SDS011;9122;48.406;9.984;2022-08-07T04:13:56;14.13;;;10.20;;
17993;SDS011;9122;48.406;9.984;2022-08-07T04:16:42;9.93;;;9.03;;
17993;SDS011;9122;48.406;9.984;2022-08-07T04:19:27;9.87;;;8.97;;
17993;SDS011;9122;48.406;9.984;2022-08-07T04:22:12;9.93;;;9.10;;
17993;SDS011;9122;48.406;9.984;2022-08-07T04:24:58;11.83;;;10.63;;
17993;SDS011;9122;48.406;9.984;2022-08-07T04:27:43;10.03;;;9.23;;
17993;SDS011;9122;48.406;9.984;2022-08-07T04:30:27;11.03;;;9.93;;
17993;SDS011;9122;48.406;9.984;2022-08-07T04:33:12;10.93;;;10.00;;
17993;SDS011;9122;48.406;9.984;2022-08-07T04:35:57;10.93;;;10.03;;
17993;SDS011;9122;48.406;9.984;2022-08-07T04:38:42;11.03;;;9.93;;
17993;SDS011;9122;48.406;9.984;2022-08-07T04:41:27;11.43;;;10.33;;
17993;SDS011;9122;48.406;9.984;2022-08-07T04:44:12;9.87;;;9.03;;
17993;SDS011;9122;48.406;9.984;2022-08-07T04:47:01;10.73;;;9.70;;
17993;SDS011;9122;48.406;9.984;2022-08-07T04:50:00;11.40;;;10.30;;
17993;SDS011;9122;48.406;9.984;2022-08-07T04:55:58;10.10;;;9.20;;
17993;SDS011;9122;48.406;9.984;2022-08-07T04:59:01;9.63;;;8.63;;
17993;SDS011;9122;48.406;9.984;2022-08-07T05:02:05;10.70;;;9.70;;
17993;SDS011;9122;48.406;9.984;2022-08-07T05:10:46;9.47;;;8.70;;
17993;SDS011;9122;48.406;9.984;2022-08-07T05:13:35;10.33;;;9.33;;
17993;SDS011;9122;48.406;9.984;2022-08-07T05:16:26;9.03;;;8.23;;
17993;SDS011;9122;48.406;9.984;2022-08-07T05:19:18;8.53;;;7.93;;
17993;SDS011;9122;48.406;9.984;2022-08-07T05:22:07;8.77;;;8.07;;
17993;SDS011;9122;48.406;9.984;2022-08-07T05:24:53;8.43;;;7.73;;
17993;SDS011;9122;48.406;9.984;2022-08-07T05:27:41;7.47;;;6.87;;
17993;SDS011;9122;48.406;9.984;2022-08-07T05:30:28;8.23;;;7.53;;
17993;SDS011;9122;48.406;9.984;2022-08-07T05:33:14;8.47;;;7.60;;
17993;SDS011;9122;48.406;9.984;2022-08-07T05:35:59;7.20;;;6.70;;
17993;SDS011;9122;48.406;9.984;2022-08-07T05:38:45;8.87;;;8.17;;
17993;SDS011;9122;48.406;9.984;2022-08-07T05:41:30;8.63;;;7.53;;
17993;SDS011;9122;48.406;9.984;2022-08-07T05:44:16;7.60;;;7.00;;
17993;SDS011;9122;48.406;9.984;2022-08-07T05:47:02;7.50;;;7.00;;
17993;SDS011;9122;48.406;9.984;2022-08-07T05:49:48;7.67;;;6.97;;
17993;SDS011;9122;48.406;9.984;2022-08-07T05:52:34;6.67;;;6.17;;
17993;SDS011;9122;48.406;9.984;2022-08-07T05:55:18;7.10;;;5.80;;
17993;SDS011;9122;48.406;9.984;2022-08-07T05:58:03;6.20;;;5.70;;
17993;SDS011;9122;48.406;9.984;2022-08-07T06:00:48;5.67;;;5.33;;
17993;SDS011;9122;48.406;9.984;2022-08-07T06:03:35;6.00;;;5.50;;
17993;SDS011;9122;48.406;9.984;2022-08-07T06:06:22;5.83;;;5.40;;
17993;SDS011;9122;48.406;9.984;2022-08-07T06:09:08;6.03;;;5.63;;
17993;SDS011;9122;48.406;9.984;2022-08-07T06:11:52;5.43;;;4.93;;
17993;SDS011;9122;48.406;9.984;2022-08-07T06:14:40;5.33;;;4.93;;
17993;SDS011;9122;48.406;9.984;2022-08-07T06:17:25;5.03;;;4.73;;
17993;SDS011;9122;48.406;9.984;2022-08-07T06:20:10;7.50;;;4.30;;
17993;SDS011;9122;48.406;9.984;2022-08-07T06:22:55;4.73;;;4.33;;
17993;SDS011;9122;48.406;9.984;2022-08-07T06:25:42;5.03;;;4.70;;
17993;SDS011;9122;48.406;9.984;2022-08-07T06:28:27;4.60;;;4.27;;
17993;SDS011;9122;48.406;9.984;2022-08-07T06:31:12;4.60;;;4.30;;
17993;SDS011;9122;48.406;9.984;2022-08-07T06:33:56;4.53;;;4.23;;
17993;SDS011;9122;48.406;9.984;2022-08-07T06:36:41;4.33;;;4.03;;
17993;SDS011;9122;48.406;9.984;2022-08-07T06:39:26;4.20;;;3.90;;
17993;SDS011;9122;48.406;9.984;2022-08-07T06:42:17;4.50;;;4.20;;
17993;SDS011;9122;48.406;9.984;2022-08-07T06:45:09;4.53;;;4.23;;
17993;SDS011;9122;48.406;9.984;2022-08-07T06:47:57;4.43;;;4.13;;
17993;SDS011;9122;48.406;9.984;2022-08-07T06:50:42;3.90;;;3.60;;
17993;SDS011;9122;48.406;9.984;2022-08-07T06:53:28;4.17;;;3.87;;
17993;SDS011;9122;48.406;9.984;2022-08-07T06:56:13;3.90;;;3.60;;
17993;SDS011;9122;48.406;9.984;2022-08-07T06:58:59;3.83;;;3.53;;
17993;SDS011;9122;48.406;9.984;2022-08-07T07:01:46;3.77;;;3.50;;
17993;SDS011;9122;48.406;9.984;2022-08-07T07:04:31;3.30;;;3.00;;
17993;SDS011;9122;48.406;9.984;2022-08-07T07:07:16;3.30;;;3.10;;
17993;SDS011;9122;48.406;9.984;2022-08-07T07:10:01;3.90;;;3.60;;
17993;SDS011;9122;48.406;9.984;2022-08-07T07:12:51;3.23;;;3.03;;
17993;SDS011;9122;48.406;9.984;2022-08-07T07:15:43;3.50;;;3.20;;
17993;SDS011;9122;48.406;9.984;2022-08-07T07:18:33;2.97;;;2.77;;
17993;SDS011;9122;48.406;9.984;2022-08-07T07:21:26;2.40;;;2.20;;
17993;SDS011;9122;48.406;9.984;2022-08-07T07:24:15;3.23;;;2.80;;
17993;SDS011;9122;48.406;9.984;2022-08-07T07:27:00;3.23;;;2.93;;
17993;SDS011;9122;48.406;9.984;2022-08-07T07:29:48;3.08;;;2.88;;
17993;SDS011;9122;48.406;9.984;2022-08-07T07:32:37;2.70;;;2.50;;
17993;SDS011;9122;48.406;9.984;2022-08-07T07:35:23;2.50;;;2.30;;
17993;SDS011;9122;48.406;9.984;2022-08-07T07:38:08;2.37;;;2.27;;
17993;SDS011;9122;48.406;9.984;2022-08-07T07:40:56;3.72;;;2.47;;
17993;SDS011;9122;48.406;9.984;2022-08-07T07:43:45;2.53;;;2.33;;
17993;SDS011;9122;48.406;9.984;2022-08-07T07:46:33;2.27;;;2.17;;
17993;SDS011;9122;48.406;9.984;2022-08-07T07:49:19;1.80;;;1.70;;
17993;SDS011;9122;48.406;9.984;2022-08-07T07:52:06;2.13;;;2.03;;
17993;SDS011;9122;48.406;9.984;2022-08-07T07:54:51;2.58;;;2.47;;
17993;SDS011;9122;48.406;9.984;2022-08-07T07:57:38;2.20;;;2.10;;
17993;SDS011;9122;48.406;9.984;2022-08-07T08:00:23;2.80;;;2.60;;
17993;SDS011;9122;48.406;9.984;2022-08-07T08:03:10;2.72;;;2.28;;
17993;SDS011;9122;48.406;9.984;2022-08-07T08:05:58;2.53;;;2.33;;
17993;SDS011;9122;48.406;9.984;2022-08-07T08:08:43;1.92;;;1.83;;
17993;SDS011;9122;48.406;9.984;2022-08-07T08:11:28;2.00;;;1.90;;
17993;SDS011;9122;48.406;9.984;2022-08-07T08:14:14;2.10;;;2.00;;
17993;SDS011;9122;48.406;9.984;2022-08-07T08:17:00;2.25;;;2.15;;
17993;SDS011;9122;48.406;9.984;2022-08-07T08:19:45;2.67;;;2.47;;
17993;SDS011;9122;48.406;9.984;2022-08-07T08:22:31;1.90;;;1.80;;
17993;SDS011;9122;48.406;9.984;2022-08-07T08:25:37;2.10;;;2.00;;
17993;SDS011;9122;48.406;9.984;2022-08-07T08:28:41;2.10;;;2.00;;
17993;SDS011;9122;48.406;9.984;2022-08-07T08:31:28;1.88;;;1.77;;
17993;SDS011;9122;48.406;9.984;2022-08-07T08:34:16;2.30;;;2.20;;
17993;SDS011;9122;48.406;9.984;2022-08-07T08:37:04;2.13;;;2.03;;
17993;SDS011;9122;48.406;9.984;2022-08-07T08:39:51;2.40;;;2.30;;
17993;SDS011;9122;48.406;9.984;2022-08-07T08:42:38;2.92;;;2.80;;
17993;SDS011;9122;48.406;9.984;2022-08-07T08:45:41;2.35;;;1.75;;
17993;SDS011;9122;48.406;9.984;2022-08-07T08:52:15;2.45;;;1.88;;
17993;SDS011;9122;48.406;9.984;2022-08-07T08:55:13;1.75;;;1.65;;
17993;SDS011;9122;48.406;9.984;2022-08-07T09:01:25;2.65;;;1.60;;
17993;SDS011;9122;48.406;9.984;2022-08-07T09:04:18;1.88;;;1.77;;
17993;SDS011;9122;48.406;9.984;2022-08-07T09:10:39;2.40;;;1.67;;
17993;SDS011;9122;48.406;9.984;2022-08-07T09:19:56;1.67;;;1.58;;
17993;SDS011;9122;48.406;9.984;2022-08-07T09:22:56;1.80;;;1.70;;
17993;SDS011;9122;48.406;9.984;2022-08-07T09:25:48;1.77;;;1.67;;
17993;SDS011;9122;48.406;9.984;2022-08-07T09:28:46;2.10;;;2.00;;
17993;SDS011;9122;48.406;9.984;2022-08-07T09:35:11;1.83;;;1.73;;
17993;SDS011;9122;48.406;9.984;2022-08-07T09:38:30;1.80;;;1.67;;
17993;SDS011;9122;48.406;9.984;2022-08-07T09:41:53;2.00;;;1.88;;
17993;SDS011;9122;48.406;9.984;2022-08-07T09:44:48;2.20;;;2.10;;
17993;SDS011;9122;48.406;9.984;2022-08-07T09:48:19;1.70;;;1.60;;
17993;SDS011;9122;48.406;9.984;2022-08-07T09:53:58;1.92;;;1.70;;
17993;SDS011;9122;48.406;9.984;2022-08-07T10:00:10;3.67;;;2.08;;
17993;SDS011;9122;48.406;9.984;2022-08-07T10:19:06;2.17;;;1.90;;
17993;SDS011;9122;48.406;9.984;2022-08-07T10:24:56;3.15;;;1.92;;
17993;SDS011;9122;48.406;9.984;2022-08-07T10:28:19;1.95;;;1.85;;
17993;SDS011;9122;48.406;9.984;2022-08-07T10:40:33;2.25;;;2.15;;
17993;SDS011;9122;48.406;9.984;2022-08-07T10:43:26;2.17;;;2.08;;
17993;SDS011;9122;48.406;9.984;2022-08-07T10:46:21;2.30;;;1.70;;
17993;SDS011;9122;48.406;9.984;2022-08-07T10:49:21;1.90;;;1.80;;
17993;SDS011;9122;48.406;9.984;2022-08-07T10:52:20;1.70;;;1.60;;
17993;SDS011;9122;48.406;9.984;2022-08-07T11:01:50;2.00;;;1.90;;
17993;SDS011;9122;48.406;9.984;2022-08-07T11:05:10;2.00;;;1.90;;
17993;SDS011;9122;48.406;9.984;2022-08-07T11:11:05;2.20;;;2.10;;
17993;SDS011;9122;48.406;9.984;2022-08-07T11:17:06;2.10;;;2.00;;
17993;SDS011;9122;48.406;9.984;2022-08-07T11:20:02;2.25;;;2.05;;
17993;SDS011;9122;48.406;9.984;2022-08-07T11:23:07;1.75;;;1.63;;
17993;SDS011;9122;48.406;9.984;2022-08-07T11:26:23;2.35;;;2.25;;
17993;SDS011;9122;48.406;9.984;2022-08-07T11:32:10;2.85;;;2.08;;
17993;SDS011;9122;48.406;9.984;2022-08-07T11:35:10;2.42;;;2.33;;
17993;SDS011;9122;48.406;9.984;2022-08-07T11:44:00;2.28;;;2.17;;
17993;SDS011;9122;48.406;9.984;2022-08-07T11:56:34;2.88;;;2.05;;
17993;SDS011;9122;48.406;9.984;2022-08-07T11:59:36;3.00;;;2.70;;
17993;SDS011;9122;48.406;9.984;2022-08-07T12:11:25;1.92;;;1.83;;
17993;SDS011;9122;48.406;9.984;2022-08-07T12:14:26;2.10;;;2.00;;
17993;SDS011;9122;48.406;9.984;2022-08-07T12:17:15;1.70;;;1.60;;
17993;SDS011;9122;48.406;9.984;2022-08-07T12:20:05;2.95;;;1.85;;
17993;SDS011;9122;48.406;9.984;2022-08-07T12:23:00;2.55;;;2.13;;
17993;SDS011;9122;48.406;9.984;2022-08-07T12:26:01;2.20;;;2.10;;
17993;SDS011;9122;48.406;9.984;2022-08-07T12:35:36;2.00;;;1.90;;
17993;SDS011;9122;48.406;9.984;2022-08-07T12:38:22;2.50;;;2.30;;
17993;SDS011;9122;48.406;9.984;2022-08-07T12:41:09;1.98;;;1.88;;
17993;SDS011;9122;48.406;9.984;2022-08-07T12:43:55;1.90;;;1.80;;
17993;SDS011;9122;48.406;9.984;2022-08-07T12:59:00;1.90;;;1.80;;
17993;SDS011;9122;48.406;9.984;2022-08-07T13:14:28;1.80;;;1.73;;
17993;SDS011;9122;48.406;9.984;2022-08-07T13:26:40;2.10;;;2.00;;
17993;SDS011;9122;48.406;9.984;2022-08-07T13:29:47;1.75;;;1.65;;
17993;SDS011;9122;48.406;9.984;2022-08-07T13:36:08;1.67;;;1.58;;
17993;SDS011;9122;48.406;9.984;2022-08-07T13:39:13;2.28;;;1.80;;
17993;SDS011;9122;48.406;9.984;2022-08-07T13:41:59;1.67;;;1.58;;
17993;SDS011;9122;48.406;9.984;2022-08-07T13:44:44;1.80;;;1.70;;
17993;SDS011;9122;48.406;9.984;2022-08-07T13:47:30;1.85;;;1.75;;
17993;SDS011;9122;48.406;9.984;2022-08-07T13:50:19;2.13;;;2.03;;
17993;SDS011;9122;48.406;9.984;2022-08-07T13:53:07;1.77;;;1.67;;
17993;SDS011;9122;48.406;9.984;2022-08-07T13:55:52;1.77;;;1.58;;
17993;SDS011;9122;48.406;9.984;2022-08-07T13:58:41;1.63;;;1.52;;
17993;SDS011;9122;48.406;9.984;2022-08-07T14:01:52;1.92;;;1.83;;
17993;SDS011;9122;48.406;9.984;2022-08-07T14:04:45;2.22;;;1.83;;
17993;SDS011;9122;48.406;9.984;2022-08-07T14:07:31;1.45;;;1.40;;
17993;SDS011;9122;48.406;9.984;2022-08-07T14:10:22;2.00;;;1.90;;
17993;SDS011;9122;48.406;9.984;2022-08-07T14:13:07;1.73;;;1.63;;
17993;SDS011;9122;48.406;9.984;2022-08-07T14:16:00;2.00;;;1.90;;
17993;SDS011;9122;48.406;9.984;2022-08-07T14:18:48;1.75;;;1.67;;
17993;SDS011;9122;48.406;9.984;2022-08-07T14:21:38;1.63;;;1.52;;
17993;SDS011;9122;48.406;9.984;2022-08-07T14:24:33;2.25;;;1.58;;
17993;SDS011;9122;48.406;9.984;2022-08-07T14:27:42;3.97;;;1.73;;
17993;SDS011;9122;48.406;9.984;2022-08-07T14:30:29;1.48;;;1.38;;
17993;SDS011;9122;48.406;9.984;2022-08-07T14:33:16;1.90;;;1.77;;
17993;SDS011;9122;48.406;9.984;2022-08-07T14:36:01;1.65;;;1.55;;
17993;SDS011;9122;48.406;9.984;2022-08-07T14:38:47;1.70;;;1.60;;
17993;SDS011;9122;48.406;9.984;2022-08-07T14:41:33;1.65;;;1.55;;
17993;SDS011;9122;48.406;9.984;2022-08-07T14:44:22;1.70;;;1.60;;
17993;SDS011;9122;48.406;9.984;2022-08-07T14:47:09;1.65;;;1.55;;
17993;SDS011;9122;48.406;9.984;2022-08-07T14:49:55;1.85;;;1.75;;
17993;SDS011;9122;48.406;9.984;2022-08-07T14:52:41;4.32;;;1.98;;
17993;SDS011;9122;48.406;9.984;2022-08-07T14:55:27;1.80;;;1.70;;
17993;SDS011;9122;48.406;9.984;2022-08-07T14:58:15;1.98;;;1.88;;
17993;SDS011;9122;48.406;9.984;2022-08-07T15:01:04;1.98;;;1.88;;
17993;SDS011;9122;48.406;9.984;2022-08-07T15:03:49;2.03;;;1.92;;
17993;SDS011;9122;48.406;9.984;2022-08-07T15:06:36;2.00;;;1.90;;
17993;SDS011;9122;48.406;9.984;2022-08-07T15:09:21;1.70;;;1.60;;
17993;SDS011;9122;48.406;9.984;2022-08-07T15:12:10;1.80;;;1.70;;
17993;SDS011;9122;48.406;9.984;2022-08-07T15:15:09;1.92;;;1.83;;
17993;SDS011;9122;48.406;9.984;2022-08-07T15:18:00;1.67;;;1.60;;
17993;SDS011;9122;48.406;9.984;2022-08-07T15:20:51;1.73;;;1.63;;
17993;SDS011;9122;48.406;9.984;2022-08-07T15:23:37;1.85;;;1.75;;
17993;SDS011;9122;48.406;9.984;2022-08-07T15:26:23;1.50;;;1.50;;
17993;SDS011;9122;48.406;9.984;2022-08-07T15:29:21;1.63;;;1.52;;
17993;SDS011;9122;48.406;9.984;2022-08-07T15:32:15;1.73;;;1.63;;
17993;SDS011;9122;48.406;9.984;2022-08-07T15:35:02;1.63;;;1.52;;
17993;SDS011;9122;48.406;9.984;2022-08-07T15:37:53;1.67;;;1.58;;
17993;SDS011;9122;48.406;9.984;2022-08-07T15:40:43;2.00;;;1.90;;
17993;SDS011;9122;48.406;9.984;2022-08-07T15:43:30;1.52;;;1.42;;
17993;SDS011;9122;48.406;9.984;2022-08-07T15:46:19;1.73;;;1.63;;
17993;SDS011;9122;48.406;9.984;2022-08-07T15:49:08;1.80;;;1.55;;
17993;SDS011;9122;48.406;9.984;2022-08-07T15:51:55;1.65;;;1.55;;
17993;SDS011;9122;48.406;9.984;2022-08-07T15:54:41;2.05;;;1.77;;
17993;SDS011;9122;48.406;9.984;2022-08-07T15:57:30;1.23;;;1.23;;
17993;SDS011;9122;48.406;9.984;2022-08-07T16:00:17;1.55;;;1.45;;
17993;SDS011;9122;48.406;9.984;2022-08-07T16:03:07;2.10;;;2.00;;
17993;SDS011;9122;48.406;9.984;2022-08-07T16:05:56;5.28;;;2.08;;
17993;SDS011;9122;48.406;9.984;2022-08-07T16:08:43;2.90;;;1.88;;
17993;SDS011;9122;48.406;9.984;2022-08-07T16:11:42;1.83;;;1.73;;
17993;SDS011;9122;48.406;9.984;2022-08-07T16:20:41;2.13;;;1.90;;
17993;SDS011;9122;48.406;9.984;2022-08-07T16:27:25;2.20;;;2.10;;
17993;SDS011;9122;48.406;9.984;2022-08-07T16:30:14;1.98;;;1.88;;
17993;SDS011;9122;48.406;9.984;2022-08-07T16:35:46;1.73;;;1.65;;
17993;SDS011;9122;48.406;9.984;2022-08-07T16:42:00;1.45;;;1.35;;
17993;SDS011;9122;48.406;9.984;2022-08-07T16:45:09;1.58;;;1.48;;
17993;SDS011;9122;48.406;9.984;2022-08-07T17:00:14;1.50;;;1.40;;
17993;SDS011;9122;48.406;9.984;2022-08-07T17:06:11;1.70;;;1.65;;
17993;SDS011;9122;48.406;9.984;2022-08-07T17:12:18;1.60;;;1.50;;
17993;SDS011;9122;48.406;9.984;2022-08-07T17:21:01;1.90;;;1.80;;
17993;SDS011;9122;48.406;9.984;2022-08-07T17:27:10;1.50;;;1.50;;
17993;SDS011;9122;48.406;9.984;2022-08-07T17:30:03;1.48;;;1.40;;
17993;SDS011;9122;48.406;9.984;2022-08-07T17:38:50;2.25;;;1.80;;
17993;SDS011;9122;48.406;9.984;2022-08-07T17:47:36;1.98;;;1.80;;
17993;SDS011;9122;48.406;9.984;2022-08-07T17:53:57;1.60;;;1.60;;
17993;SDS011;9122;48.406;9.984;2022-08-07T17:57:10;1.77;;;1.67;;
17993;SDS011;9122;48.406;9.984;2022-08-07T18:00:04;1.73;;;1.63;;
17993;SDS011;9122;48.406;9.984;2022-08-07T18:02:59;2.17;;;2.00;;
17993;SDS011;9122;48.406;9.984;2022-08-07T18:06:04;1.65;;;1.55;;
17993;SDS011;9122;48.406;9.984;2022-08-07T18:08:54;1.50;;;1.45;;
17993;SDS011;9122;48.406;9.984;2022-08-07T18:11:43;1.95;;;1.67;;
17993;SDS011;9122;48.406;9.984;2022-08-07T18:20:38;1.80;;;1.70;;
17993;SDS011;9122;48.406;9.984;2022-08-07T18:23:38;2.00;;;1.90;;
17993;SDS011;9122;48.406;9.984;2022-08-07T18:30:11;2.63;;;2.17;;
17993;SDS011;9122;48.406;9.984;2022-08-07T18:33:22;1.73;;;1.45;;
17993;SDS011;9122;48.406;9.984;2022-08-07T18:36:13;1.80;;;1.70;;
17993;SDS011;9122;48.406;9.984;2022-08-07T18:46:21;1.88;;;1.77;;
17993;SDS011;9122;48.406;9.984;2022-08-07T18:55:24;2.03;;;1.92;;
17993;SDS011;9122;48.406;9.984;2022-08-07T19:01:49;1.73;;;1.63;;
17993;SDS011;9122;48.406;9.984;2022-08-07T19:10:45;2.00;;;1.90;;
17993;SDS011;9122;48.406;9.984;2022-08-07T19:13:36;2.25;;;2.10;;
17993;SDS011;9122;48.406;9.984;2022-08-07T19:26:03;1.98;;;1.88;;
17993;SDS011;9122;48.406;9.984;2022-08-07T19:28:54;2.60;;;2.40;;
17993;SDS011;9122;48.406;9.984;2022-08-07T19:31:46;2.08;;;1.98;;
17993;SDS011;9122;48.406;9.984;2022-08-07T19:34:34;2.17;;;2.08;;
17993;SDS011;9122;48.406;9.984;2022-08-07T19:37:20;2.08;;;1.98;;
17993;SDS011;9122;48.406;9.984;2022-08-07T19:40:08;2.17;;;2.05;;
17993;SDS011;9122;48.406;9.984;2022-08-07T19:42:55;1.90;;;1.80;;
17993;SDS011;9122;48.406;9.984;2022-08-07T19:45:40;1.95;;;1.85;;
17993;SDS011;9122;48.406;9.984;2022-08-07T19:48:29;4.43;;;2.08;;
17993;SDS011;9122;48.406;9.984;2022-08-07T19:51:17;2.17;;;2.08;;
17993;SDS011;9122;48.406;9.984;2022-08-07T19:54:03;2.20;;;2.10;;
17993;SDS011;9122;48.406;9.984;2022-08-07T19:56:49;2.20;;;2.08;;
17993;SDS011;9122;48.406;9.984;2022-08-07T19:59:35;2.10;;;2.00;;
17993;SDS011;9122;48.406;9.984;2022-08-07T20:02:27;2.38;;;2.15;;
17993;SDS011;9122;48.406;9.984;2022-08-07T20:05:28;2.35;;;2.15;;
17993;SDS011;9122;48.406;9.984;2022-08-07T20:08:15;2.30;;;2.20;;
17993;SDS011;9122;48.406;9.984;2022-08-07T20:11:07;2.40;;;2.30;;
17993;SDS011;9122;48.406;9.984;2022-08-07T20:13:55;2.80;;;2.60;;
17993;SDS011;9122;48.406;9.984;2022-08-07T20:16:42;2.20;;;2.10;;
17993;SDS011;9122;48.406;9.984;2022-08-07T20:19:31;2.05;;;1.95;;
17993;SDS011;9122;48.406;9.984;2022-08-07T20:22:21;2.00;;;1.90;;
17993;SDS011;9122;48.406;9.984;2022-08-07T20:25:10;2.35;;;2.25;;
17993;SDS011;9122;48.406;9.984;2022-08-07T20:28:02;2.13;;;2.03;;
17993;SDS011;9122;48.406;9.984;2022-08-07T20:30:49;1.88;;;1.77;;
17993;SDS011;9122;48.406;9.984;2022-08-07T20:33:33;2.67;;;2.47;;
17993;SDS011;9122;48.406;9.984;2022-08-07T20:36:20;2.53;;;2.33;;
17993;SDS011;9122;48.406;9.984;2022-08-07T20:39:05;2.08;;;1.98;;
17993;SDS011;9122;48.406;9.984;2022-08-07T20:41:51;2.63;;;2.42;;
17993;SDS011;9122;48.406;9.984;2022-08-07T20:44:38;2.03;;;1.92;;
17993;SDS011;9122;48.406;9.984;2022-08-07T20:47:26;2.63;;;2.15;;
17993;SDS011;9122;48.406;9.984;2022-08-07T20:50:13;2.40;;;2.30;;
17993;SDS011;9122;48.406;9.984;2022-08-07T20:53:00;2.08;;;1.98;;
17993;SDS011;9122;48.406;9.984;2022-08-07T20:55:45;2.70;;;2.50;;
17993;SDS011;9122;48.406;9.984;2022-08-07T20:58:34;2.30;;;2.20;;
17993;SDS011;9122;48.406;9.984;2022-08-07T21:01:21;2.30;;;2.10;;
17993;SDS011;9122;48.406;9.984;2022-08-07T21:04:05;3.25;;;3.05;;
17993;SDS011;9122;48.406;9.984;2022-08-07T21:06:51;2.92;;;2.72;;
17993;SDS011;9122;48.406;9.984;2022-08-07T21:09:40;2.58;;;2.40;;
17993;SDS011;9122;48.406;9.984;2022-08-07T21:12:27;3.17;;;2.28;;
17993;SDS011;9122;48.406;9.984;2022-08-07T21:15:14;2.85;;;2.08;;
17993;SDS011;9122;48.406;9.984;2022-08-07T21:18:00;2.38;;;2.28;;
17993;SDS011;9122;48.406;9.984;2022-08-07T21:20:48;2.67;;;2.38;;
17993;SDS011;9122;48.406;9.984;2022-08-07T21:23:43;2.20;;;2.10;;
17993;SDS011;9122;48.406;9.984;2022-08-07T21:27:17;2.92;;;2.72;;
17993;SDS011;9122;48.406;9.984;2022-08-07T21:30:04;2.75;;;2.55;;